sensor_id;sensor_type;location;lat;lon;timestamp;P1;durP1;ratioP1;P2;durP2;ratioP2
40659;SDS011;26753;45.544;9.232;2022-12-07T00:02:18;50.08;;;27.52;;
40659;SDS011;26753;45.544;9.232;2022-12-07T00:04:44;46.78;;;26.20;;
40659;SDS011;26753;45.544;9.232;2022-12-07T00:07:10;47.75;;;27.42;;
40659;SDS011;26753;45.544;9.232;2022-12-07T00:09:36;49.28;;;27.13;;
40659;SDS011;26753;45.544;9.232;2022-12-07T00:12:03;48.97;;;25.98;;
40659;SDS011;26753;45.544;9.232;2022-12-07T00:14:30;53.38;;;26.80;;
40659;SDS011;26753;45.544;9.232;2022-12-07T00:16:56;49.55;;;27.35;;
40659;SDS011;26753;45.544;9.232;2022-12-07T00:19:22;47.00;;;26.58;;
40659;SDS011;26753;45.544;9.232;2022-12-07T00:21:48;47.47;;;25.95;;
40659;SDS011;26753;45.544;9.232;2022-12-07T00:24:14;49.15;;;27.15;;
40659;SDS011;26753;45.544;9.232;2022-12-07T00:26:41;44.38;;;25.88;;
40659;SDS011;26753;45.544;9.232;2022-12-07T00:29:13;42.35;;;25.90;;
40659;SDS011;26753;45.544;9.232;2022-12-07T00:31:43;50.28;;;25.98;;
40659;SDS011;26753;45.544;9.232;2022-12-07T00:34:14;44.42;;;26.50;;
40659;SDS011;26753;45.544;9.232;2022-12-07T00:36:40;43.05;;;25.95;;
40659;SDS011;26753;45.544;9.232;2022-12-07T00:39:06;47.67;;;27.20;;
40659;SDS011;26753;45.544;9.232;2022-12-07T00:41:32;46.50;;;26.70;;
40659;SDS011;26753;45.544;9.232;2022-12-07T00:43:58;46.70;;;26.70;;
40659;SDS011;26753;45.544;9.232;2022-12-07T00:46:25;42.97;;;25.95;;
40659;SDS011;26753;45.544;9.232;2022-12-07T00:48:51;45.33;;;26.42;;
40659;SDS011;26753;45.544;9.232;2022-12-07T00:51:19;49.67;;;26.10;;
40659;SDS011;26753;45.544;9.232;2022-12-07T00:53:45;49.72;;;26.63;;
40659;SDS011;26753;45.544;9.232;2022-12-07T00:56:14;47.97;;;26.15;;
40659;SDS011;26753;45.544;9.232;2022-12-07T00:58:41;48.72;;;26.20;;
40659;SDS011;26753;45.544;9.232;2022-12-07T01:01:07;48.85;;;25.90;;
40659;SDS011;26753;45.544;9.232;2022-12-07T01:03:34;45.85;;;25.27;;
40659;SDS011;26753;45.544;9.232;2022-12-07T01:06:00;44.97;;;25.70;;
40659;SDS011;26753;45.544;9.232;2022-12-07T01:08:27;44.70;;;25.30;;
40659;SDS011;26753;45.544;9.232;2022-12-07T01:11:00;43.35;;;25.45;;
40659;SDS011;26753;45.544;9.232;2022-12-07T01:13:27;45.45;;;24.67;;
40659;SDS011;26753;45.544;9.232;2022-12-07T01:15:55;47.70;;;26.20;;
40659;SDS011;26753;45.544;9.232;2022-12-07T01:18:22;47.53;;;25.92;;
40659;SDS011;26753;45.544;9.232;2022-12-07T01:20:56;44.80;;;25.00;;
40659;SDS011;26753;45.544;9.232;2022-12-07T01:23:22;43.92;;;25.02;;
40659;SDS011;26753;45.544;9.232;2022-12-07T01:25:53;42.72;;;25.20;;
40659;SDS011;26753;45.544;9.232;2022-12-07T01:28:20;41.38;;;24.88;;
40659;SDS011;26753;45.544;9.232;2022-12-07T01:30:54;41.58;;;24.75;;
40659;SDS011;26753;45.544;9.232;2022-12-07T01:33:20;42.03;;;24.38;;
40659;SDS011;26753;45.544;9.232;2022-12-07T01:35:46;44.30;;;25.02;;
40659;SDS011;26753;45.544;9.232;2022-12-07T01:38:12;41.15;;;23.70;;
40659;SDS011;26753;45.544;9.232;2022-12-07T01:40:38;44.10;;;23.88;;
40659;SDS011;26753;45.544;9.232;2022-12-07T01:43:08;42.15;;;24.27;;
40659;SDS011;26753;45.544;9.232;2022-12-07T01:45:40;40.40;;;22.98;;
40659;SDS011;26753;45.544;9.232;2022-12-07T01:48:07;41.53;;;23.42;;
40659;SDS011;26753;45.544;9.232;2022-12-07T01:50:34;38.88;;;23.00;;
40659;SDS011;26753;45.544;9.232;2022-12-07T01:53:01;41.30;;;23.83;;
40659;SDS011;26753;45.544;9.232;2022-12-07T01:55:29;40.33;;;22.33;;
40659;SDS011;26753;45.544;9.232;2022-12-07T01:57:55;39.50;;;22.20;;
40659;SDS011;26753;45.544;9.232;2022-12-07T02:00:22;43.83;;;23.23;;
40659;SDS011;26753;45.544;9.232;2022-12-07T02:05:14;40.75;;;22.92;;
40659;SDS011;26753;45.544;9.232;2022-12-07T02:07:41;41.60;;;22.73;;
40659;SDS011;26753;45.544;9.232;2022-12-07T02:12:43;44.80;;;23.50;;
40659;SDS011;26753;45.544;9.232;2022-12-07T02:15:10;40.40;;;22.80;;
40659;SDS011;26753;45.544;9.232;2022-12-07T02:17:40;42.25;;;23.58;;
40659;SDS011;26753;45.544;9.232;2022-12-07T02:20:13;38.80;;;23.40;;
40659;SDS011;26753;45.544;9.232;2022-12-07T02:30:44;41.30;;;24.27;;
40659;SDS011;26753;45.544;9.232;2022-12-07T02:38:14;41.10;;;24.58;;
40659;SDS011;26753;45.544;9.232;2022-12-07T02:40:53;40.63;;;23.95;;
40659;SDS011;26753;45.544;9.232;2022-12-07T02:43:23;39.88;;;24.13;;
40659;SDS011;26753;45.544;9.232;2022-12-07T02:45:50;41.35;;;24.42;;
40659;SDS011;26753;45.544;9.232;2022-12-07T02:48:17;43.85;;;25.02;;
40659;SDS011;26753;45.544;9.232;2022-12-07T02:50:48;40.72;;;24.27;;
40659;SDS011;26753;45.544;9.232;2022-12-07T02:53:31;37.10;;;23.70;;
40659;SDS011;26753;45.544;9.232;2022-12-07T02:55:58;39.85;;;23.27;;
40659;SDS011;26753;45.544;9.232;2022-12-07T02:58:31;40.58;;;23.27;;
40659;SDS011;26753;45.544;9.232;2022-12-07T03:01:10;38.60;;;23.40;;
40659;SDS011;26753;45.544;9.232;2022-12-07T03:03:39;39.10;;;22.48;;
40659;SDS011;26753;45.544;9.232;2022-12-07T03:06:11;35.33;;;22.00;;
40659;SDS011;26753;45.544;9.232;2022-12-07T03:09:15;38.72;;;22.98;;
40659;SDS011;26753;45.544;9.232;2022-12-07T03:11:35;41.42;;;24.52;;
40659;SDS011;26753;45.544;9.232;2022-12-07T03:14:15;40.80;;;25.30;;
40659;SDS011;26753;45.544;9.232;2022-12-07T03:16:45;38.83;;;24.90;;
40659;SDS011;26753;45.544;9.232;2022-12-07T03:19:17;41.15;;;24.25;;
40659;SDS011;26753;45.544;9.232;2022-12-07T03:21:55;38.80;;;23.08;;
40659;SDS011;26753;45.544;9.232;2022-12-07T03:24:24;36.40;;;22.92;;
40659;SDS011;26753;45.544;9.232;2022-12-07T03:26:55;39.78;;;22.42;;
40659;SDS011;26753;45.544;9.232;2022-12-07T03:29:24;35.50;;;21.30;;
40659;SDS011;26753;45.544;9.232;2022-12-07T03:31:55;38.38;;;20.58;;
40659;SDS011;26753;45.544;9.232;2022-12-07T03:34:27;32.75;;;19.90;;
40659;SDS011;26753;45.544;9.232;2022-12-07T03:37:00;32.95;;;19.92;;
40659;SDS011;26753;45.544;9.232;2022-12-07T03:39:30;33.90;;;21.42;;
40659;SDS011;26753;45.544;9.232;2022-12-07T03:41:58;29.23;;;17.35;;
40659;SDS011;26753;45.544;9.232;2022-12-07T03:44:25;27.88;;;16.83;;
40659;SDS011;26753;45.544;9.232;2022-12-07T03:47:00;28.05;;;17.00;;
40659;SDS011;26753;45.544;9.232;2022-12-07T03:49:28;30.83;;;18.48;;
40659;SDS011;26753;45.544;9.232;2022-12-07T03:56:51;26.23;;;15.82;;
40659;SDS011;26753;45.544;9.232;2022-12-07T03:59:18;29.48;;;16.25;;
40659;SDS011;26753;45.544;9.232;2022-12-07T04:01:47;23.92;;;15.23;;
40659;SDS011;26753;45.544;9.232;2022-12-07T04:04:17;25.67;;;15.50;;
40659;SDS011;26753;45.544;9.232;2022-12-07T04:06:43;25.13;;;14.95;;
40659;SDS011;26753;45.544;9.232;2022-12-07T04:09:09;23.08;;;14.93;;
40659;SDS011;26753;45.544;9.232;2022-12-07T04:11:35;24.80;;;14.95;;
40659;SDS011;26753;45.544;9.232;2022-12-07T04:14:01;24.40;;;15.23;;
40659;SDS011;26753;45.544;9.232;2022-12-07T04:16:46;25.70;;;15.98;;
40659;SDS011;26753;45.544;9.232;2022-12-07T04:19:13;27.63;;;15.40;;
40659;SDS011;26753;45.544;9.232;2022-12-07T04:21:39;30.20;;;18.02;;
40659;SDS011;26753;45.544;9.232;2022-12-07T04:24:05;27.25;;;16.77;;
40659;SDS011;26753;45.544;9.232;2022-12-07T04:26:31;25.33;;;15.65;;
40659;SDS011;26753;45.544;9.232;2022-12-07T04:28:57;25.30;;;15.52;;
40659;SDS011;26753;45.544;9.232;2022-12-07T04:31:27;27.60;;;15.70;;
40659;SDS011;26753;45.544;9.232;2022-12-07T04:33:56;26.90;;;15.85;;
40659;SDS011;26753;45.544;9.232;2022-12-07T04:36:22;26.40;;;16.45;;
40659;SDS011;26753;45.544;9.232;2022-12-07T04:38:48;28.20;;;16.50;;
40659;SDS011;26753;45.544;9.232;2022-12-07T04:41:14;26.50;;;16.40;;
40659;SDS011;26753;45.544;9.232;2022-12-07T04:43:40;27.20;;;16.35;;
40659;SDS011;26753;45.544;9.232;2022-12-07T04:46:06;28.05;;;15.75;;
40659;SDS011;26753;45.544;9.232;2022-12-07T04:48:32;24.55;;;14.73;;
40659;SDS011;26753;45.544;9.232;2022-12-07T04:50:58;25.50;;;15.02;;
40659;SDS011;26753;45.544;9.232;2022-12-07T04:53:24;25.17;;;14.60;;
40659;SDS011;26753;45.544;9.232;2022-12-07T04:55:50;26.60;;;15.02;;
40659;SDS011;26753;45.544;9.232;2022-12-07T04:58:16;23.13;;;14.80;;
40659;SDS011;26753;45.544;9.232;2022-12-07T05:00:43;24.92;;;14.70;;
40659;SDS011;26753;45.544;9.232;2022-12-07T05:03:09;25.02;;;14.38;;
40659;SDS011;26753;45.544;9.232;2022-12-07T05:05:35;26.10;;;14.13;;
40659;SDS011;26753;45.544;9.232;2022-12-07T05:08:01;24.77;;;14.35;;
40659;SDS011;26753;45.544;9.232;2022-12-07T05:10:27;24.45;;;14.68;;
40659;SDS011;26753;45.544;9.232;2022-12-07T05:12:53;27.38;;;15.40;;
40659;SDS011;26753;45.544;9.232;2022-12-07T05:15:19;26.23;;;15.77;;
40659;SDS011;26753;45.544;9.232;2022-12-07T05:17:45;25.70;;;15.45;;
40659;SDS011;26753;45.544;9.232;2022-12-07T05:20:11;24.80;;;15.82;;
40659;SDS011;26753;45.544;9.232;2022-12-07T05:22:37;27.42;;;16.98;;
40659;SDS011;26753;45.544;9.232;2022-12-07T05:25:03;31.13;;;16.77;;
40659;SDS011;26753;45.544;9.232;2022-12-07T05:27:29;30.65;;;16.42;;
40659;SDS011;26753;45.544;9.232;2022-12-07T05:29:56;35.72;;;19.92;;
40659;SDS011;26753;45.544;9.232;2022-12-07T05:32:22;31.73;;;18.13;;
40659;SDS011;26753;45.544;9.232;2022-12-07T05:34:51;35.83;;;20.52;;
40659;SDS011;26753;45.544;9.232;2022-12-07T05:37:19;36.50;;;20.75;;
40659;SDS011;26753;45.544;9.232;2022-12-07T05:39:45;33.92;;;18.08;;
40659;SDS011;26753;45.544;9.232;2022-12-07T05:42:11;31.58;;;17.10;;
40659;SDS011;26753;45.544;9.232;2022-12-07T05:44:38;30.85;;;17.05;;
40659;SDS011;26753;45.544;9.232;2022-12-07T05:47:04;29.65;;;16.88;;
40659;SDS011;26753;45.544;9.232;2022-12-07T05:49:30;27.40;;;16.33;;
40659;SDS011;26753;45.544;9.232;2022-12-07T05:51:56;27.00;;;16.35;;
40659;SDS011;26753;45.544;9.232;2022-12-07T05:54:22;29.08;;;16.67;;
40659;SDS011;26753;45.544;9.232;2022-12-07T05:56:49;30.40;;;17.95;;
40659;SDS011;26753;45.544;9.232;2022-12-07T05:59:15;30.30;;;17.35;;
40659;SDS011;26753;45.544;9.232;2022-12-07T06:01:48;32.45;;;18.00;;
40659;SDS011;26753;45.544;9.232;2022-12-07T06:04:14;29.08;;;16.95;;
40659;SDS011;26753;45.544;9.232;2022-12-07T06:06:40;30.30;;;16.90;;
40659;SDS011;26753;45.544;9.232;2022-12-07T06:09:06;29.90;;;16.50;;
40659;SDS011;26753;45.544;9.232;2022-12-07T06:11:32;32.65;;;17.10;;
40659;SDS011;26753;45.544;9.232;2022-12-07T06:14:17;28.55;;;16.13;;
40659;SDS011;26753;45.544;9.232;2022-12-07T06:16:52;28.42;;;15.52;;
40659;SDS011;26753;45.544;9.232;2022-12-07T06:19:19;26.13;;;15.10;;
40659;SDS011;26753;45.544;9.232;2022-12-07T06:21:45;26.58;;;14.73;;
40659;SDS011;26753;45.544;9.232;2022-12-07T06:24:11;25.10;;;13.95;;
40659;SDS011;26753;45.544;9.232;2022-12-07T06:26:38;25.45;;;14.43;;
40659;SDS011;26753;45.544;9.232;2022-12-07T06:29:04;26.45;;;14.98;;
40659;SDS011;26753;45.544;9.232;2022-12-07T06:31:33;26.08;;;15.25;;
40659;SDS011;26753;45.544;9.232;2022-12-07T06:34:01;27.33;;;16.10;;
40659;SDS011;26753;45.544;9.232;2022-12-07T06:36:27;35.25;;;15.63;;
40659;SDS011;26753;45.544;9.232;2022-12-07T06:38:54;27.77;;;15.18;;
40659;SDS011;26753;45.544;9.232;2022-12-07T06:41:20;27.25;;;15.27;;
40659;SDS011;26753;45.544;9.232;2022-12-07T06:43:46;26.63;;;15.43;;
40659;SDS011;26753;45.544;9.232;2022-12-07T06:46:13;30.02;;;16.10;;
40659;SDS011;26753;45.544;9.232;2022-12-07T06:48:40;28.05;;;15.48;;
40659;SDS011;26753;45.544;9.232;2022-12-07T06:51:06;29.13;;;15.75;;
40659;SDS011;26753;45.544;9.232;2022-12-07T06:53:32;26.92;;;15.43;;
40659;SDS011;26753;45.544;9.232;2022-12-07T06:55:58;24.02;;;14.18;;
40659;SDS011;26753;45.544;9.232;2022-12-07T06:58:24;23.65;;;13.90;;
40659;SDS011;26753;45.544;9.232;2022-12-07T07:00:51;25.02;;;13.80;;
40659;SDS011;26753;45.544;9.232;2022-12-07T07:03:17;25.77;;;14.40;;
40659;SDS011;26753;45.544;9.232;2022-12-07T07:05:43;24.02;;;14.15;;
40659;SDS011;26753;45.544;9.232;2022-12-07T07:08:10;24.85;;;13.80;;
40659;SDS011;26753;45.544;9.232;2022-12-07T07:10:37;24.95;;;14.10;;
40659;SDS011;26753;45.544;9.232;2022-12-07T07:13:03;25.42;;;14.40;;
40659;SDS011;26753;45.544;9.232;2022-12-07T07:15:29;26.20;;;15.20;;
40659;SDS011;26753;45.544;9.232;2022-12-07T07:17:56;26.38;;;16.85;;
40659;SDS011;26753;45.544;9.232;2022-12-07T07:20:22;33.80;;;17.52;;
40659;SDS011;26753;45.544;9.232;2022-12-07T07:22:53;25.92;;;14.68;;
40659;SDS011;26753;45.544;9.232;2022-12-07T07:25:20;28.13;;;15.93;;
40659;SDS011;26753;45.544;9.232;2022-12-07T07:30:41;25.52;;;14.93;;
40659;SDS011;26753;45.544;9.232;2022-12-07T07:33:07;23.00;;;14.85;;
40659;SDS011;26753;45.544;9.232;2022-12-07T07:35:38;25.10;;;14.35;;
40659;SDS011;26753;45.544;9.232;2022-12-07T07:38:07;21.20;;;12.45;;
40659;SDS011;26753;45.544;9.232;2022-12-07T07:40:33;23.02;;;13.13;;
40659;SDS011;26753;45.544;9.232;2022-12-07T07:43:00;22.50;;;12.60;;
40659;SDS011;26753;45.544;9.232;2022-12-07T07:45:26;21.70;;;12.15;;
40659;SDS011;26753;45.544;9.232;2022-12-07T07:47:52;20.98;;;12.20;;
40659;SDS011;26753;45.544;9.232;2022-12-07T07:50:19;20.55;;;12.13;;
40659;SDS011;26753;45.544;9.232;2022-12-07T07:52:45;19.77;;;12.15;;
40659;SDS011;26753;45.544;9.232;2022-12-07T07:58:25;20.13;;;12.55;;
40659;SDS011;26753;45.544;9.232;2022-12-07T08:00:51;20.27;;;12.48;;
40659;SDS011;26753;45.544;9.232;2022-12-07T08:03:21;22.15;;;13.57;;
40659;SDS011;26753;45.544;9.232;2022-12-07T08:05:47;22.95;;;13.18;;
40659;SDS011;26753;45.544;9.232;2022-12-07T08:08:24;25.83;;;14.00;;
40659;SDS011;26753;45.544;9.232;2022-12-07T08:11:08;23.42;;;13.48;;
40659;SDS011;26753;45.544;9.232;2022-12-07T08:13:35;24.00;;;14.00;;
40659;SDS011;26753;45.544;9.232;2022-12-07T08:16:19;28.80;;;14.55;;
40659;SDS011;26753;45.544;9.232;2022-12-07T08:18:48;25.08;;;14.80;;
40659;SDS011;26753;45.544;9.232;2022-12-07T08:21:42;24.33;;;14.90;;
40659;SDS011;26753;45.544;9.232;2022-12-07T08:24:11;28.17;;;15.75;;
40659;SDS011;26753;45.544;9.232;2022-12-07T08:26:42;27.38;;;15.63;;
40659;SDS011;26753;45.544;9.232;2022-12-07T08:29:30;29.48;;;17.08;;
40659;SDS011;26753;45.544;9.232;2022-12-07T08:32:23;26.13;;;16.85;;
40659;SDS011;26753;45.544;9.232;2022-12-07T08:34:52;32.53;;;17.42;;
40659;SDS011;26753;45.544;9.232;2022-12-07T08:37:48;32.63;;;18.77;;
40659;SDS011;26753;45.544;9.232;2022-12-07T08:40:23;33.58;;;19.70;;
40659;SDS011;26753;45.544;9.232;2022-12-07T08:45:41;34.42;;;20.15;;
40659;SDS011;26753;45.544;9.232;2022-12-07T08:48:08;35.67;;;20.90;;
40659;SDS011;26753;45.544;9.232;2022-12-07T08:51:03;36.65;;;20.23;;
40659;SDS011;26753;45.544;9.232;2022-12-07T08:53:47;34.35;;;20.25;;
40659;SDS011;26753;45.544;9.232;2022-12-07T08:56:13;33.28;;;20.38;;
40659;SDS011;26753;45.544;9.232;2022-12-07T09:01:12;35.10;;;21.77;;
40659;SDS011;26753;45.544;9.232;2022-12-07T09:07:07;36.70;;;21.88;;
40659;SDS011;26753;45.544;9.232;2022-12-07T09:12:03;33.65;;;20.30;;
40659;SDS011;26753;45.544;9.232;2022-12-07T09:14:48;33.05;;;19.77;;
40659;SDS011;26753;45.544;9.232;2022-12-07T09:17:37;28.30;;;18.65;;
40659;SDS011;26753;45.544;9.232;2022-12-07T09:20:12;31.58;;;18.77;;
40659;SDS011;26753;45.544;9.232;2022-12-07T09:23:11;33.50;;;18.70;;
40659;SDS011;26753;45.544;9.232;2022-12-07T09:26:00;31.73;;;19.57;;
40659;SDS011;26753;45.544;9.232;2022-12-07T09:28:27;35.80;;;21.83;;
40659;SDS011;26753;45.544;9.232;2022-12-07T09:36:47;33.75;;;19.55;;
40659;SDS011;26753;45.544;9.232;2022-12-07T09:39:13;33.28;;;19.52;;
40659;SDS011;26753;45.544;9.232;2022-12-07T09:41:48;33.05;;;19.40;;
40659;SDS011;26753;45.544;9.232;2022-12-07T09:44:18;34.35;;;19.95;;
40659;SDS011;26753;45.544;9.232;2022-12-07T09:46:48;35.80;;;21.73;;
40659;SDS011;26753;45.544;9.232;2022-12-07T09:49:22;41.67;;;22.60;;
40659;SDS011;26753;45.544;9.232;2022-12-07T09:52:16;39.05;;;23.30;;
40659;SDS011;26753;45.544;9.232;2022-12-07T09:54:47;39.97;;;23.80;;
40659;SDS011;26753;45.544;9.232;2022-12-07T09:57:21;40.38;;;22.08;;
40659;SDS011;26753;45.544;9.232;2022-12-07T10:00:15;34.97;;;21.63;;
40659;SDS011;26753;45.544;9.232;2022-12-07T10:05:22;34.80;;;20.92;;
40659;SDS011;26753;45.544;9.232;2022-12-07T10:08:02;32.40;;;20.30;;
40659;SDS011;26753;45.544;9.232;2022-12-07T10:10:32;34.92;;;21.92;;
40659;SDS011;26753;45.544;9.232;2022-12-07T10:13:00;34.83;;;21.58;;
40659;SDS011;26753;45.544;9.232;2022-12-07T10:23:37;33.60;;;21.58;;
40659;SDS011;26753;45.544;9.232;2022-12-07T10:26:39;34.63;;;21.15;;
40659;SDS011;26753;45.544;9.232;2022-12-07T10:29:28;32.88;;;22.27;;
40659;SDS011;26753;45.544;9.232;2022-12-07T10:34:48;34.10;;;21.08;;
40659;SDS011;26753;45.544;9.232;2022-12-07T10:39:58;34.72;;;23.05;;
40659;SDS011;26753;45.544;9.232;2022-12-07T10:42:28;35.17;;;21.95;;
40659;SDS011;26753;45.544;9.232;2022-12-07T10:45:19;36.88;;;21.98;;
40659;SDS011;26753;45.544;9.232;2022-12-07T10:53:30;36.85;;;22.38;;
40659;SDS011;26753;45.544;9.232;2022-12-07T11:13:01;35.30;;;22.50;;
40659;SDS011;26753;45.544;9.232;2022-12-07T11:15:33;33.92;;;21.77;;
40659;SDS011;26753;45.544;9.232;2022-12-07T11:18:35;36.63;;;21.45;;
40659;SDS011;26753;45.544;9.232;2022-12-07T11:24:10;33.55;;;20.98;;
40659;SDS011;26753;45.544;9.232;2022-12-07T11:38:47;32.63;;;20.38;;
40659;SDS011;26753;45.544;9.232;2022-12-07T11:41:17;35.17;;;21.13;;
40659;SDS011;26753;45.544;9.232;2022-12-07T11:51:03;29.30;;;18.58;;
40659;SDS011;26753;45.544;9.232;2022-12-07T11:53:38;31.75;;;19.45;;
40659;SDS011;26753;45.544;9.232;2022-12-07T11:56:24;27.92;;;19.20;;
40659;SDS011;26753;45.544;9.232;2022-12-07T12:02:20;27.52;;;17.80;;
40659;SDS011;26753;45.544;9.232;2022-12-07T12:08:27;29.50;;;18.20;;
40659;SDS011;26753;45.544;9.232;2022-12-07T12:11:31;25.98;;;17.00;;
40659;SDS011;26753;45.544;9.232;2022-12-07T12:14:48;28.63;;;17.65;;
40659;SDS011;26753;45.544;9.232;2022-12-07T12:22:46;30.02;;;18.73;;
40659;SDS011;26753;45.544;9.232;2022-12-07T12:27:55;30.25;;;17.45;;
40659;SDS011;26753;45.544;9.232;2022-12-07T12:30:25;27.25;;;18.90;;
40659;SDS011;26753;45.544;9.232;2022-12-07T12:47:01;27.90;;;19.10;;
40659;SDS011;26753;45.544;9.232;2022-12-07T12:57:39;26.10;;;19.23;;
40659;SDS011;26753;45.544;9.232;2022-12-07T13:02:47;23.92;;;18.55;;
40659;SDS011;26753;45.544;9.232;2022-12-07T13:05:28;25.92;;;19.73;;
40659;SDS011;26753;45.544;9.232;2022-12-07T13:07:56;26.25;;;20.05;;
40659;SDS011;26753;45.544;9.232;2022-12-07T13:18:35;48.13;;;31.95;;
40659;SDS011;26753;45.544;9.232;2022-12-07T13:21:38;31.38;;;23.90;;
40659;SDS011;26753;45.544;9.232;2022-12-07T13:23:59;28.85;;;22.38;;
40659;SDS011;26753;45.544;9.232;2022-12-07T13:29:18;65.22;;;46.60;;
40659;SDS011;26753;45.544;9.232;2022-12-07T13:31:51;35.45;;;25.58;;
40659;SDS011;26753;45.544;9.232;2022-12-07T13:34:40;34.03;;;26.33;;
40659;SDS011;26753;45.544;9.232;2022-12-07T13:37:10;29.60;;;22.80;;
40659;SDS011;26753;45.544;9.232;2022-12-07T13:39:49;29.85;;;22.60;;
40659;SDS011;26753;45.544;9.232;2022-12-07T13:42:35;26.08;;;20.85;;
40659;SDS011;26753;45.544;9.232;2022-12-07T13:51:20;28.25;;;19.85;;
40659;SDS011;26753;45.544;9.232;2022-12-07T13:53:53;28.52;;;20.40;;
40659;SDS011;26753;45.544;9.232;2022-12-07T13:56:28;25.48;;;20.67;;
40659;SDS011;26753;45.544;9.232;2022-12-07T13:59:08;29.90;;;21.90;;
40659;SDS011;26753;45.544;9.232;2022-12-07T14:01:58;28.45;;;21.98;;
40659;SDS011;26753;45.544;9.232;2022-12-07T14:06:56;30.42;;;22.98;;
40659;SDS011;26753;45.544;9.232;2022-12-07T14:09:55;30.63;;;22.80;;
40659;SDS011;26753;45.544;9.232;2022-12-07T14:12:41;27.83;;;22.00;;
40659;SDS011;26753;45.544;9.232;2022-12-07T14:16:03;31.95;;;24.35;;
40659;SDS011;26753;45.544;9.232;2022-12-07T14:18:25;29.92;;;24.25;;
40659;SDS011;26753;45.544;9.232;2022-12-07T14:21:05;32.88;;;23.80;;
40659;SDS011;26753;45.544;9.232;2022-12-07T14:23:34;30.83;;;23.10;;
40659;SDS011;26753;45.544;9.232;2022-12-07T14:26:13;31.45;;;22.05;;
40659;SDS011;26753;45.544;9.232;2022-12-07T14:28:42;28.15;;;21.98;;
40659;SDS011;26753;45.544;9.232;2022-12-07T14:31:15;29.92;;;22.48;;
40659;SDS011;26753;45.544;9.232;2022-12-07T14:33:54;28.33;;;21.55;;
40659;SDS011;26753;45.544;9.232;2022-12-07T14:36:27;31.02;;;22.67;;
40659;SDS011;26753;45.544;9.232;2022-12-07T14:38:52;28.27;;;22.20;;
40659;SDS011;26753;45.544;9.232;2022-12-07T14:41:21;29.55;;;22.17;;
40659;SDS011;26753;45.544;9.232;2022-12-07T14:44:14;31.58;;;22.63;;
40659;SDS011;26753;45.544;9.232;2022-12-07T14:47:04;30.55;;;23.02;;
40659;SDS011;26753;45.544;9.232;2022-12-07T15:12:24;30.42;;;22.42;;
40659;SDS011;26753;45.544;9.232;2022-12-07T15:14:50;31.85;;;23.23;;
40659;SDS011;26753;45.544;9.232;2022-12-07T15:17:15;29.98;;;22.80;;
40659;SDS011;26753;45.544;9.232;2022-12-07T15:19:41;31.95;;;22.60;;
40659;SDS011;26753;45.544;9.232;2022-12-07T15:22:07;33.55;;;22.30;;
40659;SDS011;26753;45.544;9.232;2022-12-07T15:24:35;31.45;;;23.45;;
40659;SDS011;26753;45.544;9.232;2022-12-07T15:27:01;30.27;;;22.40;;
40659;SDS011;26753;45.544;9.232;2022-12-07T15:29:27;30.52;;;21.75;;
40659;SDS011;26753;45.544;9.232;2022-12-07T15:31:53;40.03;;;23.63;;
40659;SDS011;26753;45.544;9.232;2022-12-07T15:34:19;28.73;;;20.95;;
40659;SDS011;26753;45.544;9.232;2022-12-07T15:36:45;34.13;;;21.83;;
40659;SDS011;26753;45.544;9.232;2022-12-07T15:39:11;33.08;;;21.58;;
40659;SDS011;26753;45.544;9.232;2022-12-07T15:41:37;31.15;;;21.52;;
40659;SDS011;26753;45.544;9.232;2022-12-07T15:44:03;30.45;;;20.05;;
40659;SDS011;26753;45.544;9.232;2022-12-07T15:46:48;28.58;;;20.05;;
40659;SDS011;26753;45.544;9.232;2022-12-07T15:49:15;30.92;;;19.05;;
40659;SDS011;26753;45.544;9.232;2022-12-07T15:51:42;28.10;;;18.83;;
40659;SDS011;26753;45.544;9.232;2022-12-07T15:54:13;30.27;;;20.33;;
40659;SDS011;26753;45.544;9.232;2022-12-07T15:56:50;32.08;;;21.13;;
40659;SDS011;26753;45.544;9.232;2022-12-07T15:59:16;30.65;;;20.15;;
40659;SDS011;26753;45.544;9.232;2022-12-07T16:01:42;26.42;;;19.10;;
40659;SDS011;26753;45.544;9.232;2022-12-07T16:04:08;28.15;;;19.38;;
40659;SDS011;26753;45.544;9.232;2022-12-07T16:06:34;27.65;;;19.58;;
40659;SDS011;26753;45.544;9.232;2022-12-07T16:09:00;28.25;;;19.35;;
40659;SDS011;26753;45.544;9.232;2022-12-07T16:11:26;27.23;;;17.73;;
40659;SDS011;26753;45.544;9.232;2022-12-07T16:13:52;27.92;;;18.90;;
40659;SDS011;26753;45.544;9.232;2022-12-07T16:16:19;25.77;;;18.13;;
40659;SDS011;26753;45.544;9.232;2022-12-07T16:18:47;24.65;;;17.90;;
40659;SDS011;26753;45.544;9.232;2022-12-07T16:21:13;26.95;;;19.08;;
40659;SDS011;26753;45.544;9.232;2022-12-07T16:23:39;27.88;;;18.45;;
40659;SDS011;26753;45.544;9.232;2022-12-07T16:26:10;29.23;;;18.77;;
40659;SDS011;26753;45.544;9.232;2022-12-07T16:28:40;36.88;;;20.20;;
40659;SDS011;26753;45.544;9.232;2022-12-07T16:31:08;31.63;;;19.50;;
40659;SDS011;26753;45.544;9.232;2022-12-07T16:33:36;28.98;;;18.17;;
40659;SDS011;26753;45.544;9.232;2022-12-07T16:36:03;33.00;;;20.17;;
40659;SDS011;26753;45.544;9.232;2022-12-07T16:38:30;26.55;;;18.75;;
40659;SDS011;26753;45.544;9.232;2022-12-07T16:40:55;31.20;;;18.77;;
40659;SDS011;26753;45.544;9.232;2022-12-07T16:43:21;32.80;;;19.00;;
40659;SDS011;26753;45.544;9.232;2022-12-07T16:45:47;28.25;;;19.52;;
40659;SDS011;26753;45.544;9.232;2022-12-07T16:48:15;29.30;;;17.95;;
40659;SDS011;26753;45.544;9.232;2022-12-07T16:50:42;31.77;;;19.33;;
40659;SDS011;26753;45.544;9.232;2022-12-07T16:53:11;29.90;;;19.23;;
40659;SDS011;26753;45.544;9.232;2022-12-07T16:55:43;28.50;;;18.50;;
40659;SDS011;26753;45.544;9.232;2022-12-07T16:58:13;29.50;;;19.33;;
40659;SDS011;26753;45.544;9.232;2022-12-07T17:00:40;29.00;;;19.00;;
40659;SDS011;26753;45.544;9.232;2022-12-07T17:03:06;27.77;;;18.63;;
40659;SDS011;26753;45.544;9.232;2022-12-07T17:05:32;29.13;;;19.67;;
40659;SDS011;26753;45.544;9.232;2022-12-07T17:07:58;25.85;;;18.90;;
40659;SDS011;26753;45.544;9.232;2022-12-07T17:10:24;41.00;;;24.02;;
40659;SDS011;26753;45.544;9.232;2022-12-07T17:12:51;42.30;;;26.50;;
40659;SDS011;26753;45.544;9.232;2022-12-07T17:15:16;46.67;;;28.23;;
40659;SDS011;26753;45.544;9.232;2022-12-07T17:20:19;47.90;;;27.70;;
40659;SDS011;26753;45.544;9.232;2022-12-07T17:22:45;47.03;;;28.58;;
40659;SDS011;26753;45.544;9.232;2022-12-07T17:25:11;48.33;;;28.08;;
40659;SDS011;26753;45.544;9.232;2022-12-07T17:27:38;49.25;;;28.60;;
40659;SDS011;26753;45.544;9.232;2022-12-07T17:30:04;49.55;;;28.85;;
40659;SDS011;26753;45.544;9.232;2022-12-07T17:32:30;47.67;;;30.05;;
40659;SDS011;26753;45.544;9.232;2022-12-07T17:34:58;47.00;;;28.33;;
40659;SDS011;26753;45.544;9.232;2022-12-07T17:37:24;49.17;;;29.50;;
40659;SDS011;26753;45.544;9.232;2022-12-07T17:39:51;46.00;;;28.33;;
40659;SDS011;26753;45.544;9.232;2022-12-07T17:42:20;49.28;;;29.23;;
40659;SDS011;26753;45.544;9.232;2022-12-07T17:47:30;48.40;;;29.30;;
40659;SDS011;26753;45.544;9.232;2022-12-07T17:49:56;50.33;;;29.17;;
40659;SDS011;26753;45.544;9.232;2022-12-07T17:52:22;52.40;;;29.33;;
40659;SDS011;26753;45.544;9.232;2022-12-07T17:55:06;46.05;;;27.88;;
40659;SDS011;26753;45.544;9.232;2022-12-07T17:57:32;46.30;;;28.73;;